createdAt,value
2022-07-27T00:01:21.740Z,102128.00
2022-07-27T00:03:48.441Z,102121.00
2022-07-27T00:06:14.984Z,102112.00
2022-07-27T00:08:41.483Z,102125.00
2022-07-27T00:11:08.473Z,102125.00
2022-07-27T00:13:34.979Z,102125.00
2022-07-27T00:16:01.562Z,102108.00
2022-07-27T00:18:28.099Z,102117.00
2022-07-27T00:20:54.694Z,102121.00
2022-07-27T00:23:21.254Z,102119.00
2022-07-27T00:25:47.723Z,102116.00
2022-07-27T00:28:14.194Z,102118.00
2022-07-27T00:30:40.849Z,102109.00
2022-07-27T00:33:07.334Z,102114.00
2022-07-27T00:35:33.798Z,102115.00
2022-07-27T00:38:02.291Z,102116.00
2022-07-27T00:40:28.757Z,102116.00
2022-07-27T00:42:55.230Z,102120.00
2022-07-27T00:45:21.719Z,102112.00
2022-07-27T00:47:53.110Z,102113.00
2022-07-27T00:50:21.446Z,102112.00
2022-07-27T00:52:48.662Z,102122.00
2022-07-27T00:55:15.924Z,102122.00
2022-07-27T00:57:58.902Z,102117.00
2022-07-27T01:00:26.923Z,102126.00
2022-07-27T01:02:53.487Z,102120.00
2022-07-27T01:05:20.618Z,102121.00
2022-07-27T01:07:47.797Z,102114.00
2022-07-27T01:10:14.340Z,102114.00
2022-07-27T01:12:41.059Z,102108.00
2022-07-27T01:15:07.623Z,102109.00
2022-07-27T01:17:34.138Z,102105.00
2022-07-27T01:20:00.676Z,102106.00
2022-07-27T01:22:27.222Z,102108.00
2022-07-27T01:24:53.742Z,102101.00
2022-07-27T01:27:20.190Z,102093.00
2022-07-27T01:29:46.781Z,102101.00
2022-07-27T01:32:13.298Z,102095.00
2022-07-27T01:34:39.881Z,102103.00
2022-07-27T01:37:06.357Z,102104.00
2022-07-27T01:39:33.557Z,102106.00
2022-07-27T01:42:00.350Z,102101.00
2022-07-27T01:44:26.947Z,102102.00
2022-07-27T01:46:53.466Z,102112.00
2022-07-27T01:49:20.387Z,102111.00
2022-07-27T01:51:46.907Z,102104.00
2022-07-27T01:54:13.413Z,102110.00
2022-07-27T01:56:40.777Z,102105.00
2022-07-27T01:59:07.267Z,102102.00
2022-07-27T02:01:33.830Z,102096.00
2022-07-27T02:04:00.328Z,102095.00
2022-07-27T02:06:26.873Z,102095.00
2022-07-27T02:08:53.301Z,102094.00
2022-07-27T02:11:40.029Z,102101.00
2022-07-27T02:14:06.449Z,102099.00
2022-07-27T02:16:33.056Z,102096.00
2022-07-27T02:18:59.593Z,102095.00
2022-07-27T02:21:31.301Z,102105.00
2022-07-27T02:23:57.754Z,102096.00
2022-07-27T02:26:24.561Z,102101.00
2022-07-27T02:28:51.259Z,102102.00
2022-07-27T02:31:17.759Z,102095.00
2022-07-27T02:33:44.268Z,102094.00
2022-07-27T02:36:10.717Z,102092.00
2022-07-27T02:38:37.156Z,102093.00
2022-07-27T02:41:03.628Z,102082.00
2022-07-27T02:43:30.592Z,102089.00
2022-07-27T02:45:57.137Z,102089.00
2022-07-27T02:48:23.603Z,102087.00
2022-07-27T02:50:50.078Z,102084.00
2022-07-27T02:53:16.514Z,102077.00
2022-07-27T02:55:42.984Z,102079.00
2022-07-27T02:58:09.490Z,102079.00
2022-07-27T03:00:35.948Z,102072.00
2022-07-27T03:03:02.405Z,102078.00
2022-07-27T03:05:29.026Z,102074.00
2022-07-27T03:07:55.499Z,102078.00
2022-07-27T03:10:21.971Z,102072.00
2022-07-27T03:12:48.433Z,102073.00
2022-07-27T03:15:14.957Z,102077.00
2022-07-27T03:17:42.603Z,102075.00
2022-07-27T03:20:13.106Z,102083.00
2022-07-27T03:22:39.555Z,102079.00
2022-07-27T03:25:06.429Z,102084.00
2022-07-27T03:27:32.868Z,102086.00
2022-07-27T03:29:59.337Z,102083.00
2022-07-27T03:32:25.788Z,102081.00
2022-07-27T03:34:52.366Z,102080.00
2022-07-27T03:37:20.035Z,102078.00
2022-07-27T03:39:46.683Z,102079.00
2022-07-27T03:42:14.281Z,102078.00
2022-07-27T03:44:40.731Z,102071.00
2022-07-27T03:47:07.252Z,102080.00
2022-07-27T03:49:33.810Z,102083.00
2022-07-27T03:52:00.362Z,102081.00
2022-07-27T03:54:27.224Z,102079.00
2022-07-27T03:56:53.710Z,102083.00
2022-07-27T03:59:20.169Z,102075.00
2022-07-27T04:01:47.003Z,102078.00
2022-07-27T04:04:13.844Z,102084.00
2022-07-27T04:06:40.315Z,102080.00
2022-07-27T04:09:09.273Z,102090.00
2022-07-27T04:11:37.003Z,102092.00
2022-07-27T04:14:04.425Z,102085.00
2022-07-27T04:16:36.185Z,102090.00
2022-07-27T04:19:02.886Z,102084.00
2022-07-27T04:21:33.574Z,102087.00
2022-07-27T04:24:00.842Z,102091.00
2022-07-27T04:26:27.834Z,102090.00
2022-07-27T04:28:54.261Z,102085.00
2022-07-27T04:31:21.717Z,102091.00
2022-07-27T04:33:48.343Z,102092.00
2022-07-27T04:36:14.796Z,102097.00
2022-07-27T04:38:41.240Z,102094.00
2022-07-27T04:41:07.769Z,102098.00
2022-07-27T04:43:34.213Z,102096.00
2022-07-27T04:46:02.496Z,102086.00
2022-07-27T04:48:29.209Z,102091.00
2022-07-27T04:50:55.705Z,102086.00
2022-07-27T04:53:22.213Z,102092.00
2022-07-27T04:55:48.658Z,102099.00
2022-07-27T04:58:15.293Z,102088.00
2022-07-27T05:00:41.824Z,102098.00
2022-07-27T05:03:09.146Z,102097.00
2022-07-27T05:05:35.705Z,102104.00
2022-07-27T05:08:02.277Z,102106.00
2022-07-27T05:10:29.020Z,102105.00
2022-07-27T05:12:55.539Z,102103.00
2022-07-27T05:15:22.086Z,102095.00
2022-07-27T05:17:48.652Z,102104.00
2022-07-27T05:20:15.271Z,102105.00
2022-07-27T05:22:41.862Z,102106.00
2022-07-27T05:25:08.670Z,102113.00
2022-07-27T05:27:37.176Z,102107.00
2022-07-27T05:30:21.071Z,102111.00
2022-07-27T05:32:47.801Z,102117.00
2022-07-27T05:35:14.283Z,102106.00
2022-07-27T05:37:40.761Z,102112.00
2022-07-27T05:40:08.133Z,102108.00
2022-07-27T05:42:34.838Z,102113.00
2022-07-27T05:45:01.272Z,102120.00
2022-07-27T05:47:27.701Z,102119.00
2022-07-27T05:49:54.458Z,102121.00
2022-07-27T05:52:20.959Z,102128.00
2022-07-27T05:54:47.458Z,102116.00
2022-07-27T05:57:15.560Z,102122.00
2022-07-27T05:59:42.161Z,102120.00
2022-07-27T06:02:09.116Z,102118.00
2022-07-27T06:04:36.404Z,102129.00
2022-07-27T06:07:21.557Z,102122.00
2022-07-27T06:09:48.417Z,102126.00
2022-07-27T06:12:15.059Z,102135.00
2022-07-27T06:14:41.592Z,102132.00
2022-07-27T06:17:08.166Z,102131.00
2022-07-27T06:19:35.934Z,102127.00
2022-07-27T06:22:03.065Z,102128.00
2022-07-27T06:24:29.583Z,102128.00
2022-07-27T06:26:56.127Z,102133.00
2022-07-27T06:29:22.769Z,102141.00
2022-07-27T06:31:49.301Z,102147.00
2022-07-27T06:34:15.908Z,102146.00
2022-07-27T06:36:45.213Z,102135.00
2022-07-27T06:39:13.466Z,102143.00
2022-07-27T06:41:40.236Z,102141.00
2022-07-27T06:44:06.661Z,102144.00
2022-07-27T06:46:33.137Z,102145.00
2022-07-27T06:48:59.660Z,102133.00
2022-07-27T06:51:26.143Z,102137.00
2022-07-27T06:53:54.432Z,102145.00
2022-07-27T06:56:22.226Z,102145.00
2022-07-27T06:58:49.392Z,102147.00
2022-07-27T07:01:15.926Z,102150.00
2022-07-27T07:03:42.519Z,102144.00
2022-07-27T07:06:09.094Z,102150.00
2022-07-27T07:08:35.808Z,102141.00
2022-07-27T07:11:02.399Z,102145.00
2022-07-27T07:13:28.944Z,102145.00
2022-07-27T07:15:56.575Z,102145.00
2022-07-27T07:18:23.142Z,102148.00
2022-07-27T07:20:49.849Z,102141.00
2022-07-27T07:23:16.283Z,102145.00
2022-07-27T07:25:42.708Z,102156.00
2022-07-27T07:28:09.253Z,102148.00
2022-07-27T07:30:36.167Z,102161.00
2022-07-27T07:33:02.691Z,102155.00
2022-07-27T07:35:29.127Z,102165.00
2022-07-27T07:37:55.598Z,102161.00
2022-07-27T07:40:42.632Z,102160.00
2022-07-27T07:43:09.209Z,102162.00
2022-07-27T07:45:38.222Z,102165.00
2022-07-27T07:48:16.398Z,102172.00
2022-07-27T07:50:43.040Z,102173.00
2022-07-27T07:53:09.530Z,102164.00
2022-07-27T07:55:36.004Z,102174.00
2022-07-27T07:58:02.529Z,102174.00
2022-07-27T08:00:29.076Z,102175.00
2022-07-27T08:02:57.785Z,102174.00
2022-07-27T08:05:24.957Z,102171.00
2022-07-27T08:07:51.865Z,102176.00
2022-07-27T08:10:19.781Z,102175.00
2022-07-27T08:12:47.156Z,102171.00
2022-07-27T08:15:14.791Z,102184.00
2022-07-27T08:17:42.594Z,102181.00
2022-07-27T08:20:09.674Z,102184.00
2022-07-27T08:22:36.109Z,102186.00
2022-07-27T08:25:03.721Z,102182.00
2022-07-27T08:27:30.261Z,102195.00
2022-07-27T08:30:07.380Z,102188.00
2022-07-27T08:32:45.642Z,102189.00
2022-07-27T08:35:12.079Z,102187.00
2022-07-27T08:37:38.505Z,102190.00
2022-07-27T08:40:38.278Z,102181.00
2022-07-27T08:42:51.691Z,102180.00
2022-07-27T08:45:19.790Z,102178.00
2022-07-27T08:47:46.474Z,102180.00
2022-07-27T08:50:23.825Z,102173.00
2022-07-27T08:52:56.365Z,102166.00
2022-07-27T08:55:23.330Z,102173.00
2022-07-27T08:57:50.611Z,102161.00
2022-07-27T09:00:17.567Z,102173.00
2022-07-27T09:02:44.917Z,102168.00
2022-07-27T09:05:11.574Z,102159.00
2022-07-27T09:07:38.082Z,102172.00
2022-07-27T09:10:05.101Z,102173.00
2022-07-27T09:12:32.873Z,102166.00
2022-07-27T09:15:12.867Z,102170.00
2022-07-27T09:17:49.411Z,102169.00
2022-07-27T09:20:18.985Z,102172.00
2022-07-27T09:22:56.158Z,102170.00
2022-07-27T09:25:45.336Z,102177.00
2022-07-27T09:28:11.137Z,102181.00
2022-07-27T09:30:41.501Z,102174.00
2022-07-27T09:33:08.038Z,102172.00
2022-07-27T09:35:38.791Z,102178.00
2022-07-27T09:38:24.572Z,102179.00
2022-07-27T09:41:01.035Z,102175.00
2022-07-27T09:44:28.547Z,102169.00
2022-07-27T09:46:17.048Z,102172.00
2022-07-27T09:48:43.756Z,102178.00
2022-07-27T09:51:55.775Z,102178.00
2022-07-27T09:53:59.149Z,102178.00
2022-07-27T09:56:27.374Z,102186.00
2022-07-27T09:58:56.577Z,102185.00
2022-07-27T10:01:27.786Z,102186.00
2022-07-27T10:03:58.878Z,102186.00
2022-07-27T10:06:26.037Z,102194.00
2022-07-27T10:08:53.577Z,102191.00
2022-07-27T10:11:20.777Z,102199.00
2022-07-27T10:13:48.014Z,102195.00
2022-07-27T10:16:16.422Z,102195.00
2022-07-27T10:19:01.947Z,102186.00
2022-07-27T10:21:29.116Z,102193.00
2022-07-27T10:23:56.734Z,102187.00
2022-07-27T10:26:26.267Z,102181.00
2022-07-27T10:28:57.117Z,102189.00
2022-07-27T10:31:25.117Z,102187.00
2022-07-27T10:33:53.130Z,102183.00
2022-07-27T10:36:20.241Z,102185.00
2022-07-27T10:38:48.143Z,102191.00
2022-07-27T10:41:25.264Z,102186.00
2022-07-27T10:44:12.044Z,102188.00
2022-07-27T10:46:43.235Z,102179.00
2022-07-27T10:49:19.126Z,102180.00
2022-07-27T10:51:45.897Z,102177.00
2022-07-27T10:54:32.570Z,102189.00
2022-07-27T10:56:59.868Z,102179.00
2022-07-27T11:00:07.620Z,102175.00
2022-07-27T11:02:37.165Z,102176.00
2022-07-27T11:05:04.500Z,102185.00
2022-07-27T11:07:42.245Z,102177.00
2022-07-27T11:10:12.993Z,102167.00
2022-07-27T11:12:40.460Z,102171.00
2022-07-27T11:15:07.437Z,102174.00
2022-07-27T11:20:31.284Z,102168.00
2022-07-27T11:23:50.093Z,102166.00
2022-07-27T11:26:00.274Z,102163.00
2022-07-27T11:28:34.305Z,102164.00
2022-07-27T11:31:03.660Z,102156.00
2022-07-27T11:33:30.491Z,102155.00
2022-07-27T11:35:58.283Z,102156.00
2022-07-27T11:38:24.800Z,102151.00
2022-07-27T11:40:59.424Z,102157.00
2022-07-27T11:43:34.736Z,102145.00
2022-07-27T11:46:23.210Z,102137.00
2022-07-27T11:49:06.692Z,102135.00
2022-07-27T11:51:50.117Z,102127.00
2022-07-27T11:54:42.928Z,102134.00
2022-07-27T11:57:15.522Z,102117.00
2022-07-27T11:59:43.360Z,102128.00
2022-07-27T12:02:13.544Z,102112.00
2022-07-27T12:04:41.698Z,102115.00
2022-07-27T12:07:10.591Z,102118.00
2022-07-27T12:09:39.192Z,102121.00
2022-07-27T12:12:14.772Z,102115.00
2022-07-27T12:14:46.134Z,102117.00
2022-07-27T12:17:18.997Z,102117.00
2022-07-27T12:19:54.685Z,102111.00
2022-07-27T12:22:28.923Z,102118.00
2022-07-27T12:24:55.758Z,102111.00
2022-07-27T12:27:22.547Z,102115.00
2022-07-27T12:30:06.097Z,102115.00
2022-07-27T12:32:34.629Z,102122.00
2022-07-27T12:35:01.462Z,102119.00
2022-07-27T12:37:31.809Z,102126.00
2022-07-27T12:39:58.452Z,102119.00
2022-07-27T12:42:35.353Z,102115.00
2022-07-27T12:45:18.630Z,102128.00
2022-07-27T12:47:45.718Z,102122.00
2022-07-27T12:50:14.530Z,102128.00
2022-07-27T12:52:46.135Z,102121.00
2022-07-27T12:55:16.093Z,102133.00
2022-07-27T12:57:55.135Z,102125.00
2022-07-27T13:00:27.973Z,102136.00
2022-07-27T13:02:59.836Z,102136.00
2022-07-27T13:05:26.363Z,102132.00
2022-07-27T13:07:53.401Z,102126.00
2022-07-27T13:10:20.512Z,102126.00
2022-07-27T13:12:47.867Z,102125.00
2022-07-27T13:15:15.069Z,102116.00
2022-07-27T13:17:41.699Z,102114.00
2022-07-27T13:20:09.844Z,102111.00
2022-07-27T13:22:37.765Z,102116.00
2022-07-27T13:25:04.451Z,102115.00
2022-07-27T13:27:43.875Z,102102.00
2022-07-27T13:30:10.994Z,102100.00
2022-07-27T13:32:38.060Z,102104.00
2022-07-27T13:35:04.934Z,102103.00
2022-07-27T13:37:31.395Z,102110.00
2022-07-27T13:39:57.839Z,102104.00
2022-07-27T13:42:26.040Z,102106.00
2022-07-27T13:45:07.837Z,102114.00
2022-07-27T13:47:35.568Z,102102.00
2022-07-27T13:50:02.190Z,102097.00
2022-07-27T13:52:28.761Z,102091.00
2022-07-27T13:54:55.373Z,102094.00
2022-07-27T13:57:21.843Z,102091.00
2022-07-27T13:59:48.301Z,102093.00
2022-07-27T14:02:14.991Z,102095.00
2022-07-27T14:04:43.834Z,102092.00
2022-07-27T14:07:11.392Z,102094.00
2022-07-27T14:09:56.470Z,102100.00
2022-07-27T14:12:22.925Z,102101.00
2022-07-27T14:14:49.387Z,102089.00
2022-07-27T14:17:15.854Z,102088.00
2022-07-27T14:19:42.352Z,102089.00
2022-07-27T14:22:11.759Z,102095.00
2022-07-27T14:24:38.873Z,102097.00
2022-07-27T14:27:06.707Z,102101.00
2022-07-27T14:29:33.850Z,102096.00
2022-07-27T14:32:00.508Z,102097.00
2022-07-27T14:34:27.056Z,102090.00
2022-07-27T14:36:53.770Z,102089.00
2022-07-27T14:39:20.252Z,102085.00
2022-07-27T14:41:46.850Z,102087.00
2022-07-27T14:44:14.100Z,102088.00
2022-07-27T14:46:40.669Z,102086.00
2022-07-27T14:49:08.501Z,102079.00
2022-07-27T14:51:35.739Z,102088.00
2022-07-27T14:54:03.296Z,102082.00
2022-07-27T14:56:29.797Z,102076.00
2022-07-27T14:58:56.235Z,102073.00
2022-07-27T15:01:22.936Z,102082.00
2022-07-27T15:03:49.485Z,102079.00
2022-07-27T15:06:16.002Z,102075.00
2022-07-27T15:08:42.494Z,102077.00
2022-07-27T15:11:09.842Z,102076.00
2022-07-27T15:13:36.282Z,102075.00
2022-07-27T15:16:03.434Z,102069.00
2022-07-27T15:18:35.062Z,102073.00
2022-07-27T15:21:12.520Z,102064.00
2022-07-27T15:23:40.498Z,102058.00
2022-07-27T15:26:06.915Z,102058.00
2022-07-27T15:28:33.439Z,102055.00
2022-07-27T15:30:59.911Z,102047.00
2022-07-27T15:33:26.835Z,102057.00
2022-07-27T15:35:53.436Z,102051.00
2022-07-27T15:38:20.055Z,102051.00
2022-07-27T15:40:47.471Z,102053.00
2022-07-27T15:43:15.327Z,102055.00
2022-07-27T15:45:43.109Z,102048.00
2022-07-27T15:48:10.330Z,102052.00
2022-07-27T15:50:37.536Z,102047.00
2022-07-27T15:53:04.638Z,102053.00
2022-07-27T15:55:31.223Z,102050.00
2022-07-27T15:57:57.754Z,102049.00
2022-07-27T16:00:25.710Z,102052.00
2022-07-27T16:02:52.388Z,102041.00
2022-07-27T16:05:20.406Z,102033.00
2022-07-27T16:07:47.111Z,102024.00
2022-07-27T16:10:13.596Z,102026.00
2022-07-27T16:12:40.026Z,102024.00
2022-07-27T16:15:06.910Z,102018.00
2022-07-27T16:17:33.398Z,102021.00
2022-07-27T16:19:59.949Z,102014.00
2022-07-27T16:22:26.846Z,102019.00
2022-07-27T16:24:53.315Z,102017.00
2022-07-27T16:27:19.814Z,102007.00
2022-07-27T16:29:46.256Z,102007.00
2022-07-27T16:32:12.727Z,102009.00
2022-07-27T16:34:39.569Z,102015.00
2022-07-27T16:37:06.183Z,102015.00
2022-07-27T16:39:33.603Z,102016.00
2022-07-27T16:42:00.381Z,102015.00
2022-07-27T16:44:26.900Z,102016.00
2022-07-27T16:46:53.664Z,102022.00
2022-07-27T16:49:20.295Z,102008.00
2022-07-27T16:51:48.024Z,102011.00
2022-07-27T16:54:14.951Z,102015.00
2022-07-27T16:56:41.451Z,102015.00
2022-07-27T16:59:08.051Z,102019.00
2022-07-27T17:01:34.640Z,102011.00
2022-07-27T17:04:01.254Z,102020.00
2022-07-27T17:06:28.739Z,102014.00
2022-07-27T17:08:55.301Z,102015.00
2022-07-27T17:11:22.474Z,102010.00
2022-07-27T17:13:50.675Z,102006.00
2022-07-27T17:16:17.735Z,102005.00
2022-07-27T17:18:44.435Z,101999.00
2022-07-27T17:21:13.631Z,101990.00
2022-07-27T17:23:42.373Z,101984.00
2022-07-27T17:26:10.526Z,101985.00
2022-07-27T17:28:39.168Z,101986.00
2022-07-27T17:31:07.312Z,101986.00
2022-07-27T17:33:34.101Z,101972.00
2022-07-27T17:36:00.590Z,101978.00
2022-07-27T17:38:27.324Z,101985.00
2022-07-27T17:40:53.984Z,101977.00
2022-07-27T17:43:20.547Z,101973.00
2022-07-27T17:45:47.084Z,101977.00
2022-07-27T17:48:13.602Z,101976.00
2022-07-27T17:50:40.140Z,101978.00
2022-07-27T17:53:06.631Z,101984.00
2022-07-27T17:55:34.675Z,101978.00
2022-07-27T17:58:01.104Z,101982.00
2022-07-27T18:00:27.603Z,101968.00
2022-07-27T18:02:54.069Z,101972.00
2022-07-27T18:05:20.574Z,101976.00
2022-07-27T18:07:51.429Z,101975.00
2022-07-27T18:10:18.374Z,101969.00
2022-07-27T18:12:44.840Z,101975.00
2022-07-27T18:15:30.071Z,101976.00
2022-07-27T18:17:56.587Z,101975.00
2022-07-27T18:20:23.112Z,101980.00
2022-07-27T18:22:49.626Z,101979.00
2022-07-27T18:25:16.167Z,101980.00
2022-07-27T18:27:44.826Z,101985.00
2022-07-27T18:30:12.341Z,101981.00
2022-07-27T18:32:38.773Z,101979.00
2022-07-27T18:35:05.497Z,101980.00
2022-07-27T18:37:31.925Z,101991.00
2022-07-27T18:39:58.385Z,101997.00
2022-07-27T18:42:24.913Z,101989.00
2022-07-27T18:44:51.405Z,101989.00
2022-07-27T18:47:17.965Z,101977.00
2022-07-27T18:49:44.409Z,101976.00
2022-07-27T18:52:10.927Z,101983.00
2022-07-27T18:54:37.567Z,101985.00
2022-07-27T18:57:04.087Z,101985.00
2022-07-27T18:59:30.585Z,101989.00
2022-07-27T19:01:57.153Z,101990.00
2022-07-27T19:04:24.643Z,101983.00
2022-07-27T19:06:51.476Z,101991.00
2022-07-27T19:09:18.050Z,101985.00
2022-07-27T19:11:44.802Z,101986.00
2022-07-27T19:14:11.219Z,101983.00
2022-07-27T19:16:37.759Z,101988.00
2022-07-27T19:19:05.903Z,101988.00
2022-07-27T19:21:35.333Z,101994.00
2022-07-27T19:24:01.878Z,101991.00
2022-07-27T19:26:28.321Z,101994.00
2022-07-27T19:28:54.794Z,101993.00
2022-07-27T19:31:23.245Z,101999.00
2022-07-27T19:33:51.190Z,101995.00
2022-07-27T19:36:17.939Z,101993.00
2022-07-27T19:38:44.457Z,101993.00
2022-07-27T19:41:10.956Z,101991.00
2022-07-27T19:43:37.415Z,101994.00
2022-07-27T19:46:04.009Z,101990.00
2022-07-27T19:48:30.663Z,102005.00
2022-07-27T19:50:59.965Z,102003.00
2022-07-27T19:53:29.800Z,102009.00
2022-07-27T19:55:56.438Z,102011.00
2022-07-27T19:58:23.351Z,102018.00
2022-07-27T20:00:52.805Z,102014.00
2022-07-27T20:03:22.705Z,102001.00
2022-07-27T20:05:49.295Z,102015.00
2022-07-27T20:08:16.153Z,102018.00
2022-07-27T20:10:42.669Z,102011.00
2022-07-27T20:13:09.396Z,102011.00
2022-07-27T20:15:36.161Z,102013.00
2022-07-27T20:18:02.716Z,102015.00
2022-07-27T20:20:29.207Z,102012.00
2022-07-27T20:22:55.715Z,102011.00
2022-07-27T20:25:22.867Z,102012.00
2022-07-27T20:27:49.423Z,102004.00
2022-07-27T20:30:17.206Z,101994.00
2022-07-27T20:32:44.384Z,101992.00
2022-07-27T20:35:10.926Z,101996.00
2022-07-27T20:37:37.604Z,101985.00
2022-07-27T20:40:05.478Z,101990.00
2022-07-27T20:42:32.093Z,102002.00
2022-07-27T20:44:58.602Z,102000.00
2022-07-27T20:47:25.136Z,101998.00
2022-07-27T20:49:51.680Z,101997.00
2022-07-27T20:52:18.141Z,101999.00
2022-07-27T20:54:44.747Z,101997.00
2022-07-27T20:57:11.303Z,101996.00
2022-07-27T20:59:37.798Z,101994.00
2022-07-27T21:02:04.459Z,101995.00
2022-07-27T21:04:31.271Z,101994.00
2022-07-27T21:06:57.776Z,101999.00
2022-07-27T21:09:24.457Z,101996.00
2022-07-27T21:11:50.951Z,101994.00
2022-07-27T21:14:17.429Z,101993.00
2022-07-27T21:16:44.081Z,101992.00
2022-07-27T21:19:10.910Z,101993.00
2022-07-27T21:21:37.701Z,101988.00
2022-07-27T21:24:17.551Z,101988.00
2022-07-27T21:26:45.508Z,101987.00
2022-07-27T21:29:12.407Z,101993.00
2022-07-27T21:31:39.285Z,101986.00
2022-07-27T21:34:08.967Z,101980.00
2022-07-27T21:36:35.665Z,101980.00
2022-07-27T21:39:02.130Z,101974.00
2022-07-27T21:41:28.602Z,101977.00
2022-07-27T21:43:55.187Z,101984.00
2022-07-27T21:46:21.725Z,101986.00
2022-07-27T21:48:48.810Z,101968.00
2022-07-27T21:51:18.294Z,101969.00
2022-07-27T21:53:45.397Z,101967.00
2022-07-27T21:56:13.327Z,101966.00
2022-07-27T21:58:40.040Z,101966.00
2022-07-27T22:01:09.039Z,101970.00
2022-07-27T22:03:36.874Z,101966.00
2022-07-27T22:06:04.634Z,101961.00
2022-07-27T22:08:31.263Z,101960.00
2022-07-27T22:10:57.903Z,101956.00
2022-07-27T22:13:24.380Z,101954.00
2022-07-27T22:15:51.017Z,101956.00
2022-07-27T22:18:17.709Z,101957.00
2022-07-27T22:20:44.243Z,101962.00
2022-07-27T22:23:10.732Z,101966.00
2022-07-27T22:25:37.256Z,101964.00
2022-07-27T22:28:03.844Z,101969.00
2022-07-27T22:30:30.362Z,101972.00
2022-07-27T22:32:56.807Z,101964.00
2022-07-27T22:35:23.397Z,101969.00
2022-07-27T22:37:49.906Z,101959.00
2022-07-27T22:40:16.390Z,101961.00
2022-07-27T22:42:43.963Z,101962.00
2022-07-27T22:45:11.171Z,101967.00
2022-07-27T22:47:38.236Z,101970.00
2022-07-27T22:50:05.827Z,101972.00
2022-07-27T22:52:32.349Z,101978.00
2022-07-27T22:54:58.859Z,101964.00
2022-07-27T22:57:25.804Z,101972.00
2022-07-27T22:59:52.677Z,101969.00
2022-07-27T23:02:19.129Z,101965.00
2022-07-27T23:04:45.624Z,101968.00
2022-07-27T23:07:12.091Z,101961.00
2022-07-27T23:09:38.747Z,101969.00
2022-07-27T23:12:05.355Z,101959.00
2022-07-27T23:14:31.829Z,101959.00
2022-07-27T23:16:58.642Z,101960.00
2022-07-27T23:19:25.133Z,101953.00
2022-07-27T23:21:53.960Z,101954.00
2022-07-27T23:24:28.894Z,101948.00
2022-07-27T23:26:55.944Z,101949.00
2022-07-27T23:29:22.424Z,101948.00
2022-07-27T23:31:48.931Z,101946.00
2022-07-27T23:34:15.730Z,101944.00
2022-07-27T23:36:43.393Z,101947.00
2022-07-27T23:39:10.060Z,101937.00
2022-07-27T23:41:36.575Z,101941.00
2022-07-27T23:44:02.998Z,101929.00
2022-07-27T23:46:29.509Z,101928.00
2022-07-27T23:48:56.056Z,101931.00
2022-07-27T23:51:22.565Z,101931.00
2022-07-27T23:53:49.016Z,101931.00
2022-07-27T23:56:15.949Z,101930.00
2022-07-27T23:58:43.474Z,101927.00
